Time;durP1;ratioP1;P1;durP2;ratioP2;P2;SDS_P1;SDS_P2;PMS_P1;PMS_P2;Temp;Humidity;BMP_temperature;BMP_pressure;BME280_temperature;BME280_humidity;BME280_pressure;Samples;Min_cycle;Max_cycle;Signal;HPM_P1;HPM_P2
2023/06/11 00:01:24;;;;;;;13.60;6.85;;;20.60;99.90;;;;;;5092308;28;20185;-81
2023/06/11 00:03:53;;;;;;;10.57;6.97;;;20.60;99.90;;;;;;5092585;27;20186;-81
2023/06/11 00:06:23;;;;;;;14.93;6.78;;;20.50;99.90;;;;;;5092434;28;20296;-81
2023/06/11 00:08:53;;;;;;;23.08;7.28;;;20.50;99.90;;;;;;5091003;28;20174;-81
2023/06/11 00:11:21;;;;;;;18.55;7.20;;;20.50;99.90;;;;;;5092170;28;20197;-82
2023/06/11 00:13:48;;;;;;;15.50;6.80;;;20.50;99.90;;;;;;5088328;28;20605;-81
2023/06/11 00:16:14;;;;;;;17.00;7.38;;;20.50;99.90;;;;;;5111061;28;20200;-82
2023/06/11 00:18:41;;;;;;;14.48;6.88;;;20.50;99.90;;;;;;5112646;27;20292;-81
2023/06/11 00:21:12;;;;;;;11.18;6.78;;;20.50;99.90;;;;;;5112309;28;20210;-81
2023/06/11 00:23:38;;;;;;;12.70;6.45;;;20.40;99.90;;;;;;5111766;28;20185;-81
2023/06/11 00:26:05;;;;;;;16.05;7.25;;;20.40;99.90;;;;;;5111063;28;20181;-81
2023/06/11 00:28:31;;;;;;;21.13;7.35;;;20.40;99.90;;;;;;5092945;28;20251;-81
2023/06/11 00:30:57;;;;;;;13.27;6.88;;;20.40;99.90;;;;;;5110906;28;20203;-81
2023/06/11 00:33:24;;;;;;;16.98;7.85;;;20.40;99.90;;;;;;5104777;28;20224;-82
2023/06/11 00:35:50;;;;;;;13.70;7.40;;;20.30;99.90;;;;;;5111020;28;20217;-82
2023/06/11 00:38:16;;;;;;;12.93;7.35;;;20.30;99.90;;;;;;5086023;28;20182;-82
2023/06/11 00:40:42;;;;;;;12.48;7.68;;;20.30;99.90;;;;;;5104587;28;20245;-81
2023/06/11 00:43:08;;;;;;;13.13;7.30;;;20.30;99.90;;;;;;5077161;28;20340;-81
2023/06/11 00:45:35;;;;;;;16.33;7.40;;;20.30;99.90;;;;;;5112654;28;20169;-82
2023/06/11 00:48:01;;;;;;;16.50;7.80;;;20.30;99.90;;;;;;5104092;28;20209;-82
2023/06/11 00:50:28;;;;;;;16.83;8.05;;;20.30;99.90;;;;;;5056692;28;20272;-81
2023/06/11 00:52:54;;;;;;;16.70;8.25;;;20.30;99.90;;;;;;5110855;28;20280;-82
2023/06/11 00:55:21;;;;;;;24.95;7.68;;;20.30;99.90;;;;;;5112181;28;20204;-81
2023/06/11 00:57:48;;;;;;;15.63;7.93;;;20.20;99.90;;;;;;5108065;28;20217;-82
2023/06/11 01:00:14;;;;;;;18.63;7.85;;;20.20;99.90;;;;;;5093727;28;20467;-82
2023/06/11 01:02:49;;;;;;;14.43;8.20;;;20.20;99.90;;;;;;5110083;28;20178;-81
2023/06/11 01:05:18;;;;;;;18.48;8.68;;;20.10;99.90;;;;;;5081410;28;20661;-82
2023/06/11 01:07:50;;;;;;;18.23;8.60;;;20.10;99.90;;;;;;5079981;28;20680;-81
2023/06/11 01:10:20;;;;;;;11.65;8.18;;;20.10;99.90;;;;;;5074466;28;20193;-81
2023/06/11 01:12:47;;;;;;;14.27;8.48;;;20.00;99.90;;;;;;5091724;28;20174;-81
2023/06/11 01:15:14;;;;;;;15.07;8.80;;;20.00;99.90;;;;;;5104193;28;20177;-81
2023/06/11 01:17:43;;;;;;;17.98;9.07;;;20.00;99.90;;;;;;5091428;28;20598;-81
2023/06/11 01:20:25;;;;;;;18.65;8.95;;;20.00;99.90;;;;;;5093714;28;20182;-83
2023/06/11 01:22:57;;;;;;;16.90;8.68;;;19.90;99.90;;;;;;5087526;28;20177;-82
2023/06/11 01:25:37;;;;;;;21.88;9.43;;;19.90;99.90;;;;;;5078652;28;20186;-81
2023/06/11 01:28:08;;;;;;;14.35;8.27;;;19.90;99.90;;;;;;5103852;28;20665;-82
2023/06/11 01:30:41;;;;;;;13.55;8.73;;;19.90;99.90;;;;;;5073723;28;20309;-81
2023/06/11 01:33:08;;;;;;;14.25;8.93;;;19.90;99.90;;;;;;5104723;28;20636;-82
2023/06/11 01:35:40;;;;;;;17.83;9.07;;;19.90;99.90;;;;;;5091491;28;20642;-84
2023/06/11 01:38:08;;;;;;;13.73;9.15;;;19.80;99.90;;;;;;5073300;28;20225;-80
2023/06/11 01:40:48;;;;;;;17.45;9.32;;;19.90;99.90;;;;;;5075090;28;20226;-80
2023/06/11 01:43:14;;;;;;;13.32;9.15;;;19.80;99.90;;;;;;5091395;28;20182;-80
2023/06/11 01:45:40;;;;;;;17.88;9.55;;;19.80;99.90;;;;;;5073122;28;20174;-80
2023/06/11 01:48:06;;;;;;;15.48;9.95;;;19.80;99.90;;;;;;5046859;28;20205;-80
2023/06/11 01:50:33;;;;;;;17.00;9.95;;;19.80;99.90;;;;;;5093509;28;20181;-81
2023/06/11 01:52:59;;;;;;;16.23;9.55;;;19.80;99.90;;;;;;5069430;28;20174;-81
2023/06/11 01:55:27;;;;;;;19.08;10.43;;;19.70;99.90;;;;;;5089715;28;20284;-80
2023/06/11 01:57:53;;;;;;;19.45;10.27;;;19.70;99.90;;;;;;5076282;28;20178;-82
2023/06/11 02:00:19;;;;;;;20.88;10.40;;;19.60;99.90;;;;;;5077019;28;20180;-81
2023/06/11 02:02:47;;;;;;;14.38;10.10;;;19.60;99.90;;;;;;5075051;28;20520;-81
2023/06/11 02:05:15;;;;;;;17.77;11.00;;;19.60;99.90;;;;;;5093218;28;20174;-81
2023/06/11 02:07:41;;;;;;;19.60;10.95;;;19.60;99.90;;;;;;5076277;28;20209;-80
2023/06/11 02:10:07;;;;;;;14.10;9.90;;;19.60;99.90;;;;;;5093239;28;20198;-80
2023/06/11 02:12:33;;;;;;;18.60;11.00;;;19.50;99.90;;;;;;5096717;27;20614;-80
2023/06/11 02:14:59;;;;;;;15.10;10.57;;;19.50;99.90;;;;;;5114775;28;20210;-81
2023/06/11 02:17:25;;;;;;;14.10;11.20;;;19.50;99.90;;;;;;5094258;28;20241;-81
2023/06/11 02:19:51;;;;;;;23.40;11.48;;;19.40;99.90;;;;;;5094131;28;20186;-82
2023/06/11 02:22:17;;;;;;;16.73;11.15;;;19.40;99.90;;;;;;5076431;28;20277;-83
2023/06/11 02:24:43;;;;;;;17.17;10.93;;;19.40;99.90;;;;;;5096443;28;20284;-83
2023/06/11 02:27:09;;;;;;;18.33;11.05;;;19.40;99.90;;;;;;5097855;28;20240;-81
2023/06/11 02:29:36;;;;;;;16.35;10.80;;;19.30;99.90;;;;;;5092141;28;20238;-81
2023/06/11 02:32:04;;;;;;;15.38;11.02;;;19.30;99.90;;;;;;5093187;28;20238;-80
2023/06/11 02:34:30;;;;;;;20.98;11.60;;;19.30;99.90;;;;;;5095704;28;20520;-81
2023/06/11 02:36:56;;;;;;;16.02;11.18;;;19.30;99.90;;;;;;5079000;28;20203;-80
2023/06/11 02:39:22;;;;;;;22.65;11.60;;;19.30;99.90;;;;;;5096231;28;20178;-80
2023/06/11 02:41:48;;;;;;;16.95;11.43;;;19.20;99.90;;;;;;5075853;28;20182;-81
2023/06/11 02:44:14;;;;;;;16.65;11.70;;;19.20;99.90;;;;;;5059285;28;20190;-80
2023/06/11 02:46:39;;;;;;;19.77;11.43;;;19.10;99.90;;;;;;5106463;28;20200;-81
2023/06/11 02:49:05;;;;;;;20.33;11.55;;;19.10;99.90;;;;;;5094582;28;20649;-81
2023/06/11 02:51:31;;;;;;;15.98;11.40;;;19.10;99.90;;;;;;5110997;28;20288;-81
2023/06/11 02:53:57;;;;;;;16.67;11.88;;;19.10;99.90;;;;;;5108755;28;20177;-82
2023/06/11 02:56:23;;;;;;;14.02;11.45;;;19.00;99.90;;;;;;5114311;28;20644;-85
2023/06/11 02:58:49;;;;;;;18.67;11.25;;;19.00;99.90;;;;;;5095521;28;20272;-81
2023/06/11 03:01:15;;;;;;;15.43;11.82;;;19.00;99.90;;;;;;5096085;28;20308;-81
2023/06/11 03:03:41;;;;;;;18.58;11.75;;;19.00;99.90;;;;;;5080445;28;20220;-81
2023/06/11 03:06:07;;;;;;;15.98;11.50;;;18.90;99.90;;;;;;5092778;28;20265;-81
2023/06/11 03:08:34;;;;;;;17.17;11.90;;;18.90;99.90;;;;;;5102681;28;20224;-83
2023/06/11 03:11:00;;;;;;;19.42;12.30;;;18.80;99.90;;;;;;5095574;28;20177;-82
2023/06/11 03:13:29;;;;;;;13.90;11.40;;;18.80;99.90;;;;;;5094921;28;20215;-81
2023/06/11 03:15:55;;;;;;;16.27;11.60;;;18.80;99.90;;;;;;5085443;28;20205;-82
2023/06/11 03:18:23;;;;;;;16.33;12.07;;;18.80;99.90;;;;;;5091519;28;20638;-83
2023/06/11 03:20:48;;;;;;;16.35;12.38;;;18.70;99.90;;;;;;5093921;28;20223;-81
2023/06/11 03:23:15;;;;;;;16.38;12.35;;;18.70;99.90;;;;;;5094505;27;20223;-81
2023/06/11 03:25:43;;;;;;;14.68;11.68;;;18.70;99.90;;;;;;5093982;28;20192;-82
2023/06/11 03:28:09;;;;;;;20.23;12.60;;;18.70;99.90;;;;;;5075233;28;20235;-82
2023/06/11 03:30:36;;;;;;;17.27;11.88;;;18.70;99.90;;;;;;5074342;28;20306;-82
2023/06/11 03:33:03;;;;;;;20.40;11.75;;;18.70;99.90;;;;;;5090032;28;20636;-82
2023/06/11 03:35:29;;;;;;;18.00;12.18;;;18.70;99.90;;;;;;5110572;28;20265;-82
2023/06/11 03:37:56;;;;;;;24.83;12.63;;;18.70;99.90;;;;;;5089636;28;20190;-82
2023/06/11 03:40:24;;;;;;;20.20;12.23;;;18.60;99.90;;;;;;5091820;28;20327;-81
2023/06/11 03:42:52;;;;;;;15.82;12.27;;;18.60;99.90;;;;;;5110950;27;20196;-81
2023/06/11 03:45:18;;;;;;;18.40;12.55;;;18.60;99.90;;;;;;5094518;28;20276;-82
2023/06/11 03:47:44;;;;;;;17.33;13.18;;;18.60;99.90;;;;;;5074629;28;20205;-84
2023/06/11 03:50:10;;;;;;;18.65;13.25;;;18.60;99.90;;;;;;5105914;28;20197;-81
2023/06/11 03:52:36;;;;;;;15.68;12.57;;;18.60;99.90;;;;;;5100690;28;20189;-81
2023/06/11 03:55:04;;;;;;;16.80;12.35;;;18.60;99.90;;;;;;5077499;28;20231;-81
2023/06/11 03:57:30;;;;;;;19.35;12.52;;;18.60;99.90;;;;;;5074838;28;20193;-81
2023/06/11 03:59:57;;;;;;;21.27;13.27;;;18.50;99.90;;;;;;5094519;28;20609;-81
2023/06/11 04:02:22;;;;;;;18.23;13.60;;;18.50;99.90;;;;;;5108423;28;20250;-82
2023/06/11 04:04:50;;;;;;;17.80;12.85;;;18.50;99.90;;;;;;5111065;28;20182;-81
2023/06/11 04:07:16;;;;;;;16.80;12.48;;;18.50;99.90;;;;;;5094568;28;20551;-81
2023/06/11 04:09:42;;;;;;;18.10;12.18;;;18.50;99.90;;;;;;5091392;28;20189;-81
2023/06/11 04:12:08;;;;;;;20.23;12.40;;;18.50;99.90;;;;;;5092701;28;20181;-81
2023/06/11 04:14:34;;;;;;;18.63;12.43;;;18.50;99.90;;;;;;5090388;28;20178;-81
2023/06/11 04:17:00;;;;;;;16.70;12.73;;;18.50;99.90;;;;;;5070643;28;20177;-81
2023/06/11 04:19:26;;;;;;;20.08;13.50;;;18.50;99.90;;;;;;5076428;28;20181;-81
2023/06/11 04:21:53;;;;;;;15.50;12.85;;;18.50;99.90;;;;;;5074127;28;20192;-81
2023/06/11 04:24:20;;;;;;;19.58;13.25;;;18.50;99.90;;;;;;5090475;28;20268;-81
2023/06/11 04:26:47;;;;;;;19.65;12.65;;;18.50;99.90;;;;;;5090109;28;20225;-81
2023/06/11 04:29:15;;;;;;;18.08;13.20;;;18.50;99.90;;;;;;5089638;28;20241;-81
2023/06/11 04:31:46;;;;;;;16.83;12.98;;;18.50;99.90;;;;;;5074127;28;20247;-86
2023/06/11 04:34:17;;;;;;;16.67;12.45;;;18.50;99.90;;;;;;5105566;28;20589;-81
2023/06/11 04:36:44;;;;;;;22.42;12.68;;;18.50;99.90;;;;;;5090798;28;20209;-82
2023/06/11 04:39:10;;;;;;;24.83;13.35;;;18.60;99.90;;;;;;5093331;28;20165;-81
2023/06/11 04:41:38;;;;;;;17.05;12.73;;;18.50;99.90;;;;;;5055275;28;20174;-82
2023/06/11 04:44:05;;;;;;;19.38;12.45;;;18.60;99.90;;;;;;5106053;28;20267;-81
2023/06/11 04:46:34;;;;;;;18.13;13.05;;;18.60;99.90;;;;;;5090434;28;20181;-81
2023/06/11 04:49:04;;;;;;;17.13;12.40;;;18.60;99.90;;;;;;5103534;28;20196;-82
2023/06/11 04:51:32;;;;;;;18.88;12.48;;;18.70;99.90;;;;;;5094107;28;20188;-81
2023/06/11 04:54:01;;;;;;;18.83;12.10;;;18.60;99.90;;;;;;5102420;28;20331;-82
2023/06/11 04:56:29;;;;;;;18.13;12.20;;;18.70;99.90;;;;;;5093923;28;20632;-81
2023/06/11 04:58:55;;;;;;;18.30;12.13;;;18.70;99.90;;;;;;5088760;28;20211;-82
2023/06/11 05:01:22;;;;;;;17.60;12.63;;;18.70;99.90;;;;;;5101402;28;20280;-82
2023/06/11 05:03:48;;;;;;;14.65;11.82;;;18.70;99.90;;;;;;5073465;28;20169;-82
2023/06/11 05:06:15;;;;;;;19.13;12.43;;;18.70;99.90;;;;;;5086732;28;20231;-81
2023/06/11 05:08:45;;;;;;;20.10;13.00;;;18.80;99.90;;;;;;5093541;28;20502;-82
2023/06/11 05:11:11;;;;;;;20.60;12.48;;;18.80;99.90;;;;;;5093280;28;20196;-84
2023/06/11 05:13:38;;;;;;;24.52;13.02;;;18.80;99.90;;;;;;5109139;28;20200;-84
2023/06/11 05:16:05;;;;;;;14.55;12.10;;;18.90;99.90;;;;;;5060791;28;20182;-85
2023/06/11 05:18:32;;;;;;;18.15;12.57;;;18.90;99.90;;;;;;5088442;28;20183;-84
2023/06/11 05:21:01;;;;;;;17.55;12.80;;;18.90;99.90;;;;;;5109724;28;20181;-84
2023/06/11 05:23:31;;;;;;;18.70;13.10;;;19.00;99.90;;;;;;5108763;28;20508;-83
2023/06/11 05:26:11;;;;;;;22.08;12.88;;;19.00;99.90;;;;;;5075567;28;20279;-84
2023/06/11 05:28:40;;;;;;;16.23;12.15;;;19.00;99.90;;;;;;5086248;28;20213;-82
2023/06/11 05:31:09;;;;;;;19.77;12.48;;;19.00;99.90;;;;;;5092394;28;20178;-82
2023/06/11 05:33:36;;;;;;;17.25;12.50;;;19.10;99.90;;;;;;5101548;28;20541;-84
2023/06/11 05:36:02;;;;;;;20.27;12.45;;;19.10;99.90;;;;;;5088047;28;20174;-83
2023/06/11 05:38:28;;;;;;;19.73;12.27;;;19.20;99.90;;;;;;5079424;28;20599;-83
2023/06/11 05:40:55;;;;;;;19.55;12.25;;;19.20;99.90;;;;;;5093819;27;20193;-83
2023/06/11 05:43:23;;;;;;;18.23;11.77;;;19.20;99.90;;;;;;5095414;28;20234;-84
2023/06/11 05:45:49;;;;;;;17.98;12.00;;;19.30;99.90;;;;;;5076986;28;20186;-84
2023/06/11 05:48:19;;;;;;;16.80;11.65;;;19.30;99.90;;;;;;5077100;28;20213;-83
2023/06/11 05:50:45;;;;;;;14.52;11.45;;;19.40;99.90;;;;;;5083867;28;20188;-83
2023/06/11 05:53:11;;;;;;;19.45;12.23;;;19.50;99.90;;;;;;5112934;28;20193;-83
2023/06/11 05:55:40;;;;;;;17.73;11.98;;;19.50;99.90;;;;;;5111784;28;20185;-84
2023/06/11 05:58:07;;;;;;;17.50;11.65;;;19.60;99.90;;;;;;5080234;28;20205;-83
2023/06/11 06:00:33;;;;;;;19.92;11.57;;;19.60;99.90;;;;;;5096767;28;20606;-83
2023/06/11 06:03:01;;;;;;;17.88;12.45;;;19.70;99.90;;;;;;5097203;28;20549;-82
2023/06/11 06:05:29;;;;;;;18.75;11.80;;;19.70;99.90;;;;;;5113642;28;20181;-83
2023/06/11 06:07:56;;;;;;;15.75;11.60;;;19.80;99.90;;;;;;5109325;28;20213;-82
2023/06/11 06:10:23;;;;;;;21.30;12.18;;;19.80;99.90;;;;;;5102151;28;20181;-83
2023/06/11 06:12:49;;;;;;;16.75;12.43;;;19.90;99.90;;;;;;5093142;27;20206;-83
2023/06/11 06:15:15;;;;;;;16.67;11.65;;;20.00;99.90;;;;;;5112098;28;20774;-84
2023/06/11 06:17:42;;;;;;;18.73;10.98;;;20.00;99.90;;;;;;5092696;28;20189;-83
2023/06/11 06:20:11;;;;;;;15.95;11.23;;;20.10;99.90;;;;;;5092834;28;20247;-83
2023/06/11 06:22:38;;;;;;;15.88;11.82;;;20.20;99.90;;;;;;5071526;28;20186;-83
2023/06/11 06:25:05;;;;;;;16.02;10.75;;;20.30;99.90;;;;;;5075765;28;20272;-83
2023/06/11 06:27:32;;;;;;;17.67;11.18;;;20.30;99.90;;;;;;5088281;28;20650;-84
2023/06/11 06:29:58;;;;;;;19.10;11.35;;;20.40;99.90;;;;;;5095991;28;20225;-83
2023/06/11 06:32:24;;;;;;;16.33;10.30;;;20.50;99.90;;;;;;5111736;28;20288;-83
2023/06/11 06:34:50;;;;;;;16.17;10.52;;;20.50;99.90;;;;;;5092695;28;20327;-83
2023/06/11 06:37:16;;;;;;;15.45;10.75;;;20.60;99.90;;;;;;5092883;28;20186;-84
2023/06/11 06:39:44;;;;;;;16.45;10.98;;;20.70;99.90;;;;;;5105820;27;20181;-83
2023/06/11 06:42:10;;;;;;;14.75;10.55;;;20.70;99.90;;;;;;5092385;28;20174;-84
2023/06/11 06:44:40;;;;;;;15.85;11.40;;;20.80;99.90;;;;;;5082883;28;20515;-84
2023/06/11 06:47:06;;;;;;;13.35;11.20;;;20.80;99.90;;;;;;5080192;28;20266;-81
2023/06/11 06:49:33;;;;;;;15.85;11.25;;;20.90;99.90;;;;;;5081216;28;20629;-83
2023/06/11 06:51:58;;;;;;;19.02;11.25;;;20.90;99.90;;;;;;5092449;28;20182;-84
2023/06/11 06:54:25;;;;;;;16.83;11.60;;;21.10;99.90;;;;;;5076407;28;20658;-92
2023/06/11 06:56:51;;;;;;;14.48;10.45;;;21.10;99.90;;;;;;5076135;28;20255;-84
2023/06/11 06:59:17;;;;;;;17.38;11.20;;;21.20;99.90;;;;;;5085380;28;20539;-84
2023/06/11 07:01:43;;;;;;;14.98;10.52;;;21.30;99.90;;;;;;5091605;28;20185;-83
2023/06/11 07:04:09;;;;;;;16.77;10.82;;;21.40;99.90;;;;;;5092015;28;20240;-81
2023/06/11 07:06:36;;;;;;;15.68;10.85;;;21.40;99.90;;;;;;5109546;28;20272;-84
2023/06/11 07:09:03;;;;;;;18.55;11.18;;;21.50;99.90;;;;;;5076547;28;20188;-85
2023/06/11 07:11:29;;;;;;;18.80;10.70;;;21.60;99.90;;;;;;5102456;28;20177;-84
2023/06/11 07:13:56;;;;;;;14.80;10.82;;;21.70;99.90;;;;;;5075202;28;20262;-84
2023/06/11 07:16:24;;;;;;;16.73;11.05;;;21.80;99.90;;;;;;5054394;28;20186;-82
2023/06/11 07:18:55;;;;;;;16.67;10.80;;;21.90;99.90;;;;;;5090880;28;20192;-81
2023/06/11 07:21:23;;;;;;;13.82;10.50;;;22.00;99.90;;;;;;5095486;28;20190;-81
2023/06/11 07:23:52;;;;;;;15.90;10.52;;;22.00;99.90;;;;;;5076158;28;20256;-82
2023/06/11 07:26:19;;;;;;;17.80;10.13;;;22.10;99.90;;;;;;5076613;28;20189;-80
2023/06/11 07:28:46;;;;;;;11.98;10.07;;;22.20;99.90;;;;;;5106493;28;20308;-82
2023/06/11 07:31:12;;;;;;;15.13;11.40;;;22.30;99.90;;;;;;5110556;28;20209;-80
2023/06/11 07:33:41;;;;;;;15.45;10.43;;;22.40;99.90;;;;;;5090695;28;20169;-82
2023/06/11 07:36:07;;;;;;;13.93;11.13;;;22.50;99.90;;;;;;5102659;28;20272;-81
2023/06/11 07:38:33;;;;;;;16.95;10.70;;;22.60;99.90;;;;;;5090050;28;20212;-80
2023/06/11 07:41:01;;;;;;;19.70;11.20;;;22.70;99.90;;;;;;5057644;28;20583;-81
2023/06/11 07:43:27;;;;;;;14.85;10.65;;;22.80;99.90;;;;;;5090566;28;20193;-80
2023/06/11 07:45:53;;;;;;;14.30;10.40;;;22.80;99.90;;;;;;5057784;28;20189;-81
2023/06/11 07:48:20;;;;;;;15.35;11.02;;;22.90;99.90;;;;;;5073012;28;20547;-82
2023/06/11 07:50:49;;;;;;;17.02;10.25;;;22.90;99.90;;;;;;5090977;28;20197;-81
2023/06/11 07:53:18;;;;;;;13.18;10.43;;;23.00;99.90;;;;;;5089443;28;20182;-82
2023/06/11 07:55:50;;;;;;;18.75;10.57;;;23.20;99.90;;;;;;5082580;28;20188;-81
2023/06/11 07:58:17;;;;;;;14.75;10.60;;;23.20;99.90;;;;;;5098443;28;20177;-81
2023/06/11 08:00:43;;;;;;;16.50;10.43;;;23.40;99.90;;;;;;5112132;28;20268;-81
2023/06/11 08:03:09;;;;;;;17.95;11.05;;;23.50;99.90;;;;;;5109586;28;20190;-82
2023/06/11 08:05:35;;;;;;;15.27;10.77;;;23.50;99.90;;;;;;5079744;28;20188;-81
2023/06/11 08:08:01;;;;;;;30.85;10.77;;;23.60;99.90;;;;;;5042488;28;20201;-83
2023/06/11 08:10:26;;;;;;;19.00;10.98;;;23.70;99.90;;;;;;5089732;28;20704;-81
2023/06/11 08:12:52;;;;;;;12.85;10.57;;;23.80;99.90;;;;;;5099875;28;20184;-81
2023/06/11 08:15:19;;;;;;;13.88;10.50;;;23.90;99.90;;;;;;5094711;28;20181;-81
2023/06/11 08:17:45;;;;;;;14.48;10.77;;;23.90;99.90;;;;;;5103594;28;20181;-82
2023/06/11 08:20:11;;;;;;;15.63;10.73;;;24.10;99.90;;;;;;5103959;28;20197;-81
2023/06/11 08:22:39;;;;;;;16.77;10.30;;;24.20;99.90;;;;;;5105748;28;20180;-82
2023/06/11 08:25:05;;;;;;;12.85;10.50;;;24.30;99.90;;;;;;5092802;28;20217;-82
2023/06/11 08:27:31;;;;;;;16.98;10.77;;;24.40;99.90;;;;;;5094426;28;20213;-83
2023/06/11 08:29:58;;;;;;;15.98;10.75;;;24.50;99.90;;;;;;5077238;28;20274;-82
2023/06/11 08:32:24;;;;;;;15.73;10.18;;;24.50;99.90;;;;;;5096075;28;20194;-81
2023/06/11 08:34:50;;;;;;;14.85;9.85;;;24.60;99.90;;;;;;5091166;28;20667;-82
2023/06/11 08:37:16;;;;;;;14.50;10.55;;;24.70;99.90;;;;;;5095844;28;20193;-81
2023/06/11 08:39:42;;;;;;;23.75;10.18;;;24.80;99.90;;;;;;5097700;28;20186;-83
2023/06/11 08:42:08;;;;;;;13.15;9.65;;;24.90;99.90;;;;;;5100161;28;20185;-80
2023/06/11 08:44:35;;;;;;;14.38;10.40;;;25.00;99.90;;;;;;5089892;28;20537;-81
2023/06/11 08:47:02;;;;;;;20.65;11.20;;;25.10;99.90;;;;;;5112605;28;20209;-82
2023/06/11 08:49:30;;;;;;;15.27;9.73;;;25.20;99.90;;;;;;5112349;28;20185;-82
2023/06/11 08:52:02;;;;;;;13.13;9.70;;;25.20;99.90;;;;;;5094070;28;20177;-82
2023/06/11 08:54:28;;;;;;;17.65;10.02;;;25.30;99.90;;;;;;5117276;27;20247;-81
2023/06/11 08:56:54;;;;;;;15.45;10.75;;;25.40;99.80;;;;;;5096410;28;20205;-82
2023/06/11 08:59:20;;;;;;;13.65;10.10;;;25.50;99.50;;;;;;5079071;28;20731;-81
2023/06/11 09:01:50;;;;;;;20.33;10.25;;;25.60;99.20;;;;;;5100264;28;20625;-81
2023/06/11 09:04:20;;;;;;;15.45;10.23;;;25.60;98.70;;;;;;5093903;28;20263;-81
2023/06/11 09:06:50;;;;;;;13.10;9.70;;;25.70;98.60;;;;;;5095412;28;20196;-82
2023/06/11 09:09:16;;;;;;;19.17;10.13;;;25.70;98.60;;;;;;5092252;28;20178;-81
2023/06/11 09:11:43;;;;;;;15.23;9.10;;;25.90;98.40;;;;;;5096386;28;20185;-81
2023/06/11 09:14:08;;;;;;;11.77;8.63;;;25.90;98.00;;;;;;5104140;27;20231;-81
2023/06/11 09:16:42;;;;;;;16.35;8.95;;;26.00;97.90;;;;;;5104941;28;20181;-81
2023/06/11 09:19:19;;;;;;;13.60;9.80;;;26.00;97.70;;;;;;5101592;28;20182;-82
2023/06/11 09:21:50;;;;;;;16.60;9.00;;;26.10;97.50;;;;;;5090725;28;20204;-82
2023/06/11 09:24:18;;;;;;;15.75;9.60;;;26.20;97.30;;;;;;5098616;28;20181;-81
2023/06/11 09:26:58;;;;;;;14.30;9.43;;;26.30;97.10;;;;;;5103727;28;20287;-82
2023/06/11 09:29:27;;;;;;;12.70;8.88;;;26.40;96.90;;;;;;5091980;28;20220;-81
2023/06/11 09:32:07;;;;;;;15.48;9.25;;;26.50;96.90;;;;;;5099249;27;20280;-84
2023/06/11 09:34:33;;;;;;;10.88;8.60;;;26.70;96.60;;;;;;5102438;28;20184;-83
2023/06/11 09:37:00;;;;;;;16.25;8.77;;;26.80;96.30;;;;;;5112598;28;20260;-81
2023/06/11 09:39:27;;;;;;;12.57;8.50;;;26.90;95.70;;;;;;5100310;28;20184;-81
2023/06/11 09:41:54;;;;;;;13.75;8.63;;;26.90;95.10;;;;;;5105072;27;20185;-81
2023/06/11 09:44:21;;;;;;;9.75;8.07;;;26.90;94.80;;;;;;5077136;28;20204;-84
2023/06/11 09:46:48;;;;;;;12.20;8.35;;;27.00;94.60;;;;;;5080581;28;20634;-83
2023/06/11 09:49:16;;;;;;;15.63;8.38;;;27.20;94.20;;;;;;5079278;28;20189;-81
2023/06/11 09:51:43;;;;;;;12.05;8.60;;;27.20;94.20;;;;;;5101008;28;20185;-86
2023/06/11 09:54:13;;;;;;;9.98;7.72;;;27.30;94.20;;;;;;5082178;28;20184;-79
2023/06/11 09:56:42;;;;;;;13.98;8.40;;;27.30;93.70;;;;;;5098696;27;20287;-81
2023/06/11 09:59:10;;;;;;;13.20;8.40;;;27.40;93.30;;;;;;5095827;28;20269;-82
2023/06/11 10:01:37;;;;;;;9.43;8.05;;;27.50;93.10;;;;;;5104185;28;20181;-80
2023/06/11 10:04:03;;;;;;;13.85;7.90;;;27.60;92.70;;;;;;5094363;28;20197;-81
2023/06/11 10:06:40;;;;;;;13.63;8.40;;;27.70;92.30;;;;;;5109271;28;20515;-83
2023/06/11 10:09:11;;;;;;;13.15;8.40;;;27.80;91.90;;;;;;5091840;28;20181;-82
2023/06/11 10:11:39;;;;;;;12.40;8.00;;;27.80;91.70;;;;;;5094295;28;20174;-82
2023/06/11 10:14:09;;;;;;;14.07;8.70;;;28.00;92.00;;;;;;5113141;27;20173;-81
2023/06/11 10:16:36;;;;;;;10.55;7.63;;;28.10;91.70;;;;;;5104143;27;20181;-84
2023/06/11 10:19:09;;;;;;;10.48;7.82;;;28.20;91.10;;;;;;5091139;28;20224;-84
2023/06/11 10:21:50;;;;;;;12.68;8.02;;;28.20;90.60;;;;;;5098670;28;20181;-84
2023/06/11 10:24:22;;;;;;;11.35;7.75;;;28.30;90.30;;;;;;5109324;28;20204;-84
2023/06/11 10:27:05;;;;;;;11.32;8.20;;;28.40;90.00;;;;;;5094344;28;20181;-85
2023/06/11 10:29:39;;;;;;;10.00;7.40;;;28.40;89.30;;;;;;5100505;28;20227;-83
2023/06/11 10:32:23;;;;;;;13.07;7.85;;;28.50;87.50;;;;;;5114492;28;20523;-85
2023/06/11 10:34:57;;;;;;;11.98;7.75;;;28.50;87.30;;;;;;5108991;28;20463;-84
2023/06/11 10:37:42;;;;;;;12.85;7.88;;;28.50;86.50;;;;;;5109994;27;20269;-84
2023/06/11 10:40:09;;;;;;;10.60;7.38;;;28.50;86.20;;;;;;5060628;28;20639;-83
2023/06/11 10:42:37;;;;;;;12.70;7.47;;;28.50;85.90;;;;;;5096807;28;20189;-82
2023/06/11 10:45:10;;;;;;;11.50;7.18;;;28.60;85.30;;;;;;5098235;28;20549;-81
2023/06/11 10:47:49;;;;;;;10.25;7.40;;;28.70;84.40;;;;;;5091820;28;20201;-82
2023/06/11 10:50:16;;;;;;;14.13;8.00;;;28.80;82.80;;;;;;5089001;27;20178;-82
2023/06/11 10:52:57;;;;;;;8.95;7.45;;;28.90;82.10;;;;;;5091082;28;20227;-83
2023/06/11 10:55:29;;;;;;;12.75;8.32;;;29.00;81.70;;;;;;5105683;28;20174;-83
2023/06/11 10:57:57;;;;;;;15.90;7.70;;;29.00;81.40;;;;;;5109059;28;21651;-84
2023/06/11 11:00:23;;;;;;;14.52;8.27;;;29.10;79.80;;;;;;5122340;27;20204;-82
2023/06/11 11:02:54;;;;;;;15.85;8.63;;;29.10;78.70;;;;;;5110155;28;20196;-92
2023/06/11 11:05:19;;;;;;;14.43;7.72;;;29.10;78.70;;;;;;5108481;28;20174;-83
2023/06/11 11:07:45;;;;;;;10.90;8.07;;;29.20;77.60;;;;;;5095169;28;20209;-81
2023/06/11 11:10:18;;;;;;;13.85;7.60;;;29.30;75.60;;;;;;5075227;28;20592;-84
2023/06/11 11:12:48;;;;;;;14.18;7.60;;;29.30;74.10;;;;;;5104438;28;20642;-81
2023/06/11 11:15:15;;;;;;;11.90;8.85;;;29.30;72.50;;;;;;5107390;28;20336;-83
2023/06/11 11:17:44;;;;;;;13.27;7.38;;;29.30;71.80;;;;;;5112070;28;20208;-83
2023/06/11 11:20:12;;;;;;;9.77;7.05;;;29.40;71.60;;;;;;5103368;28;20517;-82
2023/06/11 11:22:38;;;;;;;9.65;7.05;;;29.40;70.90;;;;;;5104654;28;20183;-82
2023/06/11 11:25:06;;;;;;;14.68;6.90;;;29.40;68.60;;;;;;5057729;28;20189;-83
2023/06/11 11:27:33;;;;;;;11.20;6.85;;;29.50;67.30;;;;;;5077518;28;20224;-82
2023/06/11 11:30:02;;;;;;;14.43;6.95;;;29.50;66.50;;;;;;5106581;28;20223;-81
2023/06/11 11:32:31;;;;;;;8.30;7.10;;;29.40;65.60;;;;;;5103984;28;20177;-83
2023/06/11 11:34:57;;;;;;;11.43;6.60;;;29.40;66.30;;;;;;5110010;28;20284;-81
2023/06/11 11:37:32;;;;;;;10.30;7.30;;;29.40;65.30;;;;;;5109561;28;20259;-81
2023/06/11 11:40:06;;;;;;;10.70;6.38;;;29.40;63.40;;;;;;5102586;28;20268;-81
2023/06/11 11:42:43;;;;;;;7.60;6.43;;;29.50;62.60;;;;;;5091750;28;20272;-82
2023/06/11 11:45:13;;;;;;;8.90;6.28;;;29.50;61.70;;;;;;5095253;28;20200;-83
2023/06/11 11:47:41;;;;;;;7.82;6.28;;;29.50;61.20;;;;;;5093593;28;20254;-82
2023/06/11 11:50:18;;;;;;;10.52;7.30;;;29.60;61.10;;;;;;5108702;27;20203;-83
2023/06/11 11:52:45;;;;;;;9.68;6.60;;;29.60;60.40;;;;;;5092783;28;20172;-82
2023/06/11 11:55:11;;;;;;;10.85;6.70;;;29.60;59.70;;;;;;5090918;28;20185;-82
2023/06/11 11:57:40;;;;;;;12.60;6.55;;;29.70;59.60;;;;;;5099936;28;20203;-86
2023/06/11 12:00:07;;;;;;;7.97;6.47;;;29.70;59.40;;;;;;5094586;28;20185;-83
2023/06/11 12:02:33;;;;;;;7.93;6.72;;;29.60;58.70;;;;;;5074356;28;20594;-84
2023/06/11 12:05:00;;;;;;;11.00;6.93;;;29.60;57.90;;;;;;5093349;28;20191;-84
2023/06/11 12:07:26;;;;;;;10.05;6.63;;;29.70;58.00;;;;;;5098529;28;20251;-84
2023/06/11 12:09:52;;;;;;;11.00;6.57;;;29.70;58.10;;;;;;5092054;28;20541;-84
2023/06/11 12:12:18;;;;;;;12.73;6.80;;;29.70;58.30;;;;;;5092164;28;20685;-83
2023/06/11 12:14:43;;;;;;;12.00;7.05;;;29.70;58.10;;;;;;5084778;28;20263;-82
2023/06/11 12:17:10;;;;;;;12.38;6.90;;;29.90;57.90;;;;;;5110417;28;20745;-83
2023/06/11 12:19:37;;;;;;;8.88;7.00;;;29.90;57.50;;;;;;5072224;28;20545;-83
2023/06/11 12:22:05;;;;;;;13.07;6.70;;;30.00;56.90;;;;;;5110806;28;20644;-83
2023/06/11 12:24:32;;;;;;;16.98;7.15;;;30.00;56.30;;;;;;5109305;28;20180;-83
2023/06/11 12:26:59;;;;;;;16.40;7.47;;;30.00;56.10;;;;;;5111222;28;20180;-83
2023/06/11 12:29:25;;;;;;;11.30;7.07;;;30.00;56.20;;;;;;5077254;28;20676;-83
2023/06/11 12:31:51;;;;;;;14.48;6.95;;;30.00;56.10;;;;;;5080665;28;20181;-82
2023/06/11 12:34:18;;;;;;;14.05;6.93;;;30.00;55.90;;;;;;5096584;28;20249;-84